sensor_id;sensor_type;location;lat;lon;timestamp;pressure;altitude;pressure_sealevel;temperature;humidity
32298;BME280;18782;48.984;8.548;2023-04-04T00:02:11;100861.53;;;2.44;55.22
32298;BME280;18782;48.984;8.548;2023-04-04T00:04:38;100854.94;;;2.46;55.34
32298;BME280;18782;48.984;8.548;2023-04-04T00:07:07;100852.94;;;2.42;55.90
32298;BME280;18782;48.984;8.548;2023-04-04T00:09:35;100852.50;;;2.35;55.77
32298;BME280;18782;48.984;8.548;2023-04-04T00:12:04;100844.91;;;2.35;56.55
32298;BME280;18782;48.984;8.548;2023-04-04T00:14:32;100851.41;;;2.32;56.05
32298;BME280;18782;48.984;8.548;2023-04-04T00:16:59;100841.88;;;2.29;56.59
32298;BME280;18782;48.984;8.548;2023-04-04T00:19:27;100844.56;;;2.31;56.35
32298;BME280;18782;48.984;8.548;2023-04-04T00:21:54;100842.81;;;2.30;56.56
32298;BME280;18782;48.984;8.548;2023-04-04T00:24:23;100838.13;;;2.24;56.41
32298;BME280;18782;48.984;8.548;2023-04-04T00:26:51;100836.16;;;2.20;56.03
32298;BME280;18782;48.984;8.548;2023-04-04T00:29:19;100835.94;;;2.17;56.09
32298;BME280;18782;48.984;8.548;2023-04-04T00:31:46;100832.28;;;2.14;55.67
32298;BME280;18782;48.984;8.548;2023-04-04T00:34:14;100833.41;;;2.17;57.02
32298;BME280;18782;48.984;8.548;2023-04-04T00:36:41;100834.38;;;2.07;56.47
32298;BME280;18782;48.984;8.548;2023-04-04T00:39:09;100827.44;;;2.05;57.08
32298;BME280;18782;48.984;8.548;2023-04-04T00:41:38;100831.50;;;2.03;56.83
32298;BME280;18782;48.984;8.548;2023-04-04T00:44:07;100829.75;;;2.02;57.14
32298;BME280;18782;48.984;8.548;2023-04-04T00:46:35;100831.31;;;2.00;57.16
32298;BME280;18782;48.984;8.548;2023-04-04T00:49:02;100827.66;;;1.96;57.47
32298;BME280;18782;48.984;8.548;2023-04-04T00:51:30;100824.00;;;1.93;56.98
32298;BME280;18782;48.984;8.548;2023-04-04T00:53:57;100821.47;;;1.93;57.59
32298;BME280;18782;48.984;8.548;2023-04-04T00:56:25;100829.22;;;1.94;57.51
32298;BME280;18782;48.984;8.548;2023-04-04T00:58:56;100823.13;;;1.92;58.79
32298;BME280;18782;48.984;8.548;2023-04-04T01:01:24;100825.56;;;1.91;59.00
32298;BME280;18782;48.984;8.548;2023-04-04T01:03:52;100820.91;;;1.85;58.35
32298;BME280;18782;48.984;8.548;2023-04-04T01:06:20;100826.00;;;1.85;57.88
32298;BME280;18782;48.984;8.548;2023-04-04T01:08:48;100818.28;;;1.83;58.66
32298;BME280;18782;48.984;8.548;2023-04-04T01:11:17;100820.56;;;1.80;59.34
32298;BME280;18782;48.984;8.548;2023-04-04T01:13:46;100822.88;;;1.77;59.23
32298;BME280;18782;48.984;8.548;2023-04-04T01:16:17;100819.81;;;1.81;59.92
32298;BME280;18782;48.984;8.548;2023-04-04T01:18:45;100820.91;;;1.73;60.48
32298;BME280;18782;48.984;8.548;2023-04-04T01:21:15;100813.06;;;1.70;59.77
32298;BME280;18782;48.984;8.548;2023-04-04T01:23:46;100816.38;;;1.69;60.45
32298;BME280;18782;48.984;8.548;2023-04-04T01:26:21;100817.16;;;1.68;62.25
32298;BME280;18782;48.984;8.548;2023-04-04T01:28:50;100808.53;;;1.66;63.45
32298;BME280;18782;48.984;8.548;2023-04-04T01:31:20;100817.59;;;1.63;63.23
32298;BME280;18782;48.984;8.548;2023-04-04T01:33:53;100813.25;;;1.62;63.12
32298;BME280;18782;48.984;8.548;2023-04-04T01:36:25;100804.84;;;1.51;62.55
32298;BME280;18782;48.984;8.548;2023-04-04T01:39:04;100812.91;;;1.45;63.35
32298;BME280;18782;48.984;8.548;2023-04-04T01:41:36;100811.56;;;1.39;64.10
32298;BME280;18782;48.984;8.548;2023-04-04T01:44:04;100816.41;;;1.36;64.54
32298;BME280;18782;48.984;8.548;2023-04-04T01:46:32;100807.59;;;1.30;65.59
32298;BME280;18782;48.984;8.548;2023-04-04T01:49:02;100809.13;;;1.28;66.19
32298;BME280;18782;48.984;8.548;2023-04-04T01:51:32;100812.97;;;1.23;65.17
32298;BME280;18782;48.984;8.548;2023-04-04T01:54:00;100805.13;;;1.20;65.04
32298;BME280;18782;48.984;8.548;2023-04-04T01:56:28;100799.81;;;1.17;65.03
32298;BME280;18782;48.984;8.548;2023-04-04T01:58:57;100803.13;;;1.16;65.02
32298;BME280;18782;48.984;8.548;2023-04-04T02:01:25;100807.19;;;1.14;65.65
32298;BME280;18782;48.984;8.548;2023-04-04T02:03:52;100814.59;;;1.11;66.23
32298;BME280;18782;48.984;8.548;2023-04-04T02:06:20;100804.63;;;1.02;66.18
32298;BME280;18782;48.984;8.548;2023-04-04T02:08:47;100797.53;;;0.98;65.67
32298;BME280;18782;48.984;8.548;2023-04-04T02:11:15;100803.72;;;1.02;65.34
32298;BME280;18782;48.984;8.548;2023-04-04T02:13:43;100798.41;;;0.99;67.50
32298;BME280;18782;48.984;8.548;2023-04-04T02:16:16;100803.38;;;0.97;68.04
32298;BME280;18782;48.984;8.548;2023-04-04T02:18:43;100809.53;;;0.89;66.08
32298;BME280;18782;48.984;8.548;2023-04-04T02:21:11;100814.47;;;0.88;67.48
32298;BME280;18782;48.984;8.548;2023-04-04T02:23:38;100812.50;;;0.84;67.94
32298;BME280;18782;48.984;8.548;2023-04-04T02:26:06;100813.22;;;0.83;69.41
32298;BME280;18782;48.984;8.548;2023-04-04T02:28:36;100811.47;;;0.82;65.86
32298;BME280;18782;48.984;8.548;2023-04-04T02:31:03;100801.44;;;0.83;68.19
32298;BME280;18782;48.984;8.548;2023-04-04T02:33:33;100805.63;;;0.83;68.58
32298;BME280;18782;48.984;8.548;2023-04-04T02:36:03;100810.75;;;0.72;69.31
32298;BME280;18782;48.984;8.548;2023-04-04T02:38:31;100810.66;;;0.71;69.64
32298;BME280;18782;48.984;8.548;2023-04-04T02:41:03;100810.28;;;0.66;68.64
32298;BME280;18782;48.984;8.548;2023-04-04T02:43:31;100803.22;;;0.62;69.68
32298;BME280;18782;48.984;8.548;2023-04-04T02:46:02;100803.88;;;0.60;69.31
32298;BME280;18782;48.984;8.548;2023-04-04T02:48:45;100800.97;;;0.55;71.20
32298;BME280;18782;48.984;8.548;2023-04-04T02:51:13;100796.56;;;0.52;70.78
32298;BME280;18782;48.984;8.548;2023-04-04T02:53:41;100796.22;;;0.48;70.80
32298;BME280;18782;48.984;8.548;2023-04-04T02:56:18;100798.50;;;0.45;71.41
32298;BME280;18782;48.984;8.548;2023-04-04T02:58:46;100796.47;;;0.41;71.78
32298;BME280;18782;48.984;8.548;2023-04-04T03:01:14;100799.41;;;0.35;71.77
32298;BME280;18782;48.984;8.548;2023-04-04T03:03:41;100807.00;;;0.35;72.07
32298;BME280;18782;48.984;8.548;2023-04-04T03:06:10;100800.06;;;0.33;72.79
32298;BME280;18782;48.984;8.548;2023-04-04T03:08:40;100797.03;;;0.37;71.92
32298;BME280;18782;48.984;8.548;2023-04-04T03:11:08;100796.13;;;0.36;71.90
32298;BME280;18782;48.984;8.548;2023-04-04T03:13:35;100802.72;;;0.34;71.24
32298;BME280;18782;48.984;8.548;2023-04-04T03:16:04;100796.78;;;0.34;71.60
32298;BME280;18782;48.984;8.548;2023-04-04T03:18:46;100807.91;;;0.36;69.55
32298;BME280;18782;48.984;8.548;2023-04-04T03:21:19;100793.72;;;0.38;69.64
32298;BME280;18782;48.984;8.548;2023-04-04T03:23:47;100797.25;;;0.40;69.25
32298;BME280;18782;48.984;8.548;2023-04-04T03:26:15;100798.44;;;0.33;68.19
32298;BME280;18782;48.984;8.548;2023-04-04T03:28:43;100797.75;;;0.36;69.94
32298;BME280;18782;48.984;8.548;2023-04-04T03:31:12;100797.91;;;0.37;68.82
32298;BME280;18782;48.984;8.548;2023-04-04T03:33:41;100797.75;;;0.36;68.40
32298;BME280;18782;48.984;8.548;2023-04-04T03:36:09;100798.53;;;0.35;68.85
32298;BME280;18782;48.984;8.548;2023-04-04T03:38:40;100791.47;;;0.31;69.01
32298;BME280;18782;48.984;8.548;2023-04-04T03:41:08;100790.97;;;0.24;69.40
32298;BME280;18782;48.984;8.548;2023-04-04T03:43:36;100793.91;;;0.19;70.01
32298;BME280;18782;48.984;8.548;2023-04-04T03:46:05;100793.81;;;0.17;70.79
32298;BME280;18782;48.984;8.548;2023-04-04T03:48:33;100789.50;;;0.16;68.27
32298;BME280;18782;48.984;8.548;2023-04-04T03:51:04;100795.31;;;0.15;68.06
32298;BME280;18782;48.984;8.548;2023-04-04T03:53:32;100800.16;;;0.12;68.20
32298;BME280;18782;48.984;8.548;2023-04-04T03:56:03;100796.84;;;0.13;68.68
32298;BME280;18782;48.984;8.548;2023-04-04T03:58:30;100803.94;;;0.17;68.97
32298;BME280;18782;48.984;8.548;2023-04-04T04:00:58;100802.16;;;0.16;68.91
32298;BME280;18782;48.984;8.548;2023-04-04T04:03:28;100810.50;;;0.15;68.20
32298;BME280;18782;48.984;8.548;2023-04-04T04:05:57;100812.41;;;0.18;68.14
32298;BME280;18782;48.984;8.548;2023-04-04T04:08:25;100813.81;;;0.14;68.09
32298;BME280;18782;48.984;8.548;2023-04-04T04:10:53;100816.13;;;0.11;67.36
32298;BME280;18782;48.984;8.548;2023-04-04T04:13:22;100814.56;;;0.13;67.49
32298;BME280;18782;48.984;8.548;2023-04-04T04:15:50;100807.75;;;0.12;66.48
32298;BME280;18782;48.984;8.548;2023-04-04T04:18:20;100813.97;;;0.06;66.95
32298;BME280;18782;48.984;8.548;2023-04-04T04:20:50;100817.63;;;0.09;66.67
32298;BME280;18782;48.984;8.548;2023-04-04T04:23:17;100817.09;;;0.13;67.39
32298;BME280;18782;48.984;8.548;2023-04-04T04:25:48;100820.63;;;0.15;67.23
32298;BME280;18782;48.984;8.548;2023-04-04T04:28:19;100816.63;;;0.07;67.26
32298;BME280;18782;48.984;8.548;2023-04-04T04:30:48;100813.44;;;0.10;67.34
32298;BME280;18782;48.984;8.548;2023-04-04T04:33:20;100815.56;;;0.15;67.95
32298;BME280;18782;48.984;8.548;2023-04-04T04:35:58;100816.13;;;0.11;67.60
32298;BME280;18782;48.984;8.548;2023-04-04T04:38:33;100815.34;;;0.12;67.46
32298;BME280;18782;48.984;8.548;2023-04-04T04:41:02;100815.34;;;0.12;66.90
32298;BME280;18782;48.984;8.548;2023-04-04T04:43:38;100812.19;;;0.05;67.38
32298;BME280;18782;48.984;8.548;2023-04-04T04:46:08;100814.84;;;0.06;66.26
32298;BME280;18782;48.984;8.548;2023-04-04T04:48:35;100815.38;;;0.02;67.48
32298;BME280;18782;48.984;8.548;2023-04-04T04:51:04;100823.34;;;-0.04;66.25
32298;BME280;18782;48.984;8.548;2023-04-04T04:53:42;100820.72;;;-0.05;67.02
32298;BME280;18782;48.984;8.548;2023-04-04T04:56:10;100820.44;;;-0.08;67.34
32298;BME280;18782;48.984;8.548;2023-04-04T04:58:41;100818.69;;;-0.09;67.19
32298;BME280;18782;48.984;8.548;2023-04-04T05:01:18;100815.13;;;-0.11;67.08
32298;BME280;18782;48.984;8.548;2023-04-04T05:03:46;100820.72;;;-0.05;67.08
32298;BME280;18782;48.984;8.548;2023-04-04T05:06:23;100822.97;;;-0.08;67.87
32298;BME280;18782;48.984;8.548;2023-04-04T05:08:51;100830.84;;;-0.05;68.32
32298;BME280;18782;48.984;8.548;2023-04-04T05:11:26;100825.78;;;-0.05;67.54
32298;BME280;18782;48.984;8.548;2023-04-04T05:13:55;100824.75;;;-0.07;67.44
32298;BME280;18782;48.984;8.548;2023-04-04T05:16:26;100823.25;;;-0.05;67.94
32298;BME280;18782;48.984;8.548;2023-04-04T05:18:56;100831.84;;;-0.03;68.02
32298;BME280;18782;48.984;8.548;2023-04-04T05:21:23;100833.56;;;0.08;73.33
32298;BME280;18782;48.984;8.548;2023-04-04T05:23:54;100836.81;;;0.28;73.46
32298;BME280;18782;48.984;8.548;2023-04-04T05:26:23;100837.03;;;0.31;69.57
32298;BME280;18782;48.984;8.548;2023-04-04T05:28:53;100837.78;;;0.40;68.94
32298;BME280;18782;48.984;8.548;2023-04-04T05:31:25;100834.56;;;0.52;70.26
32298;BME280;18782;48.984;8.548;2023-04-04T05:33:53;100832.63;;;0.60;67.73
32298;BME280;18782;48.984;8.548;2023-04-04T05:36:31;100836.69;;;0.58;67.52
32298;BME280;18782;48.984;8.548;2023-04-04T05:39:03;100839.44;;;0.61;66.99
32298;BME280;18782;48.984;8.548;2023-04-04T05:41:34;100839.22;;;0.58;67.96
32298;BME280;18782;48.984;8.548;2023-04-04T05:44:10;100846.78;;;0.68;67.25
32298;BME280;18782;48.984;8.548;2023-04-04T05:46:39;100851.66;;;0.77;67.70
32298;BME280;18782;48.984;8.548;2023-04-04T05:49:07;100844.94;;;0.77;67.86
32298;BME280;18782;48.984;8.548;2023-04-04T05:51:39;100842.00;;;0.83;66.92
32298;BME280;18782;48.984;8.548;2023-04-04T05:54:10;100844.09;;;0.89;66.65
32298;BME280;18782;48.984;8.548;2023-04-04T05:56:39;100842.34;;;0.88;66.19
32298;BME280;18782;48.984;8.548;2023-04-04T05:59:14;100848.44;;;0.90;65.64
32298;BME280;18782;48.984;8.548;2023-04-04T06:01:53;100854.81;;;0.85;67.07
32298;BME280;18782;48.984;8.548;2023-04-04T06:04:21;100852.78;;;0.81;66.37
32298;BME280;18782;48.984;8.548;2023-04-04T06:06:50;100847.06;;;0.83;66.65
32298;BME280;18782;48.984;8.548;2023-04-04T06:09:19;100848.44;;;0.90;66.81
32298;BME280;18782;48.984;8.548;2023-04-04T06:11:47;100850.41;;;0.94;67.10
32298;BME280;18782;48.984;8.548;2023-04-04T06:14:15;100853.44;;;1.00;67.11
32298;BME280;18782;48.984;8.548;2023-04-04T06:16:45;100865.03;;;1.08;67.41
32298;BME280;18782;48.984;8.548;2023-04-04T06:19:15;100852.97;;;1.16;65.69
32298;BME280;18782;48.984;8.548;2023-04-04T06:21:43;100859.13;;;1.19;65.65
32298;BME280;18782;48.984;8.548;2023-04-04T06:24:12;100862.28;;;1.27;65.11
32298;BME280;18782;48.984;8.548;2023-04-04T06:26:40;100856.00;;;1.34;65.13
32298;BME280;18782;48.984;8.548;2023-04-04T06:29:08;100855.47;;;1.38;64.94
32298;BME280;18782;48.984;8.548;2023-04-04T06:31:37;100845.31;;;1.38;63.70
32298;BME280;18782;48.984;8.548;2023-04-04T06:34:12;100854.16;;;1.43;65.00
32298;BME280;18782;48.984;8.548;2023-04-04T06:36:52;100853.56;;;1.57;65.01
32298;BME280;18782;48.984;8.548;2023-04-04T06:39:22;100855.31;;;1.58;64.16
32298;BME280;18782;48.984;8.548;2023-04-04T06:41:52;100853.31;;;1.54;62.45
32298;BME280;18782;48.984;8.548;2023-04-04T06:44:24;100855.84;;;1.54;62.14
32298;BME280;18782;48.984;8.548;2023-04-04T06:46:52;100861.03;;;1.55;62.17
32298;BME280;18782;48.984;8.548;2023-04-04T06:49:20;100855.06;;;1.55;62.28
32298;BME280;18782;48.984;8.548;2023-04-04T06:51:48;100857.72;;;1.56;61.47
32298;BME280;18782;48.984;8.548;2023-04-04T06:54:19;100848.47;;;1.57;62.08
32298;BME280;18782;48.984;8.548;2023-04-04T06:56:47;100854.63;;;1.61;61.74
32298;BME280;18782;48.984;8.548;2023-04-04T06:59:15;100851.81;;;1.68;62.19
32298;BME280;18782;48.984;8.548;2023-04-04T07:01:43;100847.06;;;1.72;61.27
32298;BME280;18782;48.984;8.548;2023-04-04T07:04:11;100844.09;;;1.90;60.72
32298;BME280;18782;48.984;8.548;2023-04-04T07:06:39;100844.66;;;1.97;60.71
32298;BME280;18782;48.984;8.548;2023-04-04T07:09:07;100844.78;;;1.99;60.07
32298;BME280;18782;48.984;8.548;2023-04-04T07:11:48;100844.78;;;1.99;60.60
32298;BME280;18782;48.984;8.548;2023-04-04T07:14:16;100844.34;;;2.04;61.93
32298;BME280;18782;48.984;8.548;2023-04-04T07:16:44;100848.53;;;2.16;62.75
32298;BME280;18782;48.984;8.548;2023-04-04T07:19:11;100840.13;;;2.28;62.22
32298;BME280;18782;48.984;8.548;2023-04-04T07:21:39;100855.13;;;2.49;61.82
32298;BME280;18782;48.984;8.548;2023-04-04T07:24:07;100853.81;;;2.54;61.20
32298;BME280;18782;48.984;8.548;2023-04-04T07:26:34;100844.38;;;2.65;60.40
32298;BME280;18782;48.984;8.548;2023-04-04T07:29:03;100842.94;;;2.68;58.90
32298;BME280;18782;48.984;8.548;2023-04-04T07:31:31;100850.03;;;2.72;57.63
32298;BME280;18782;48.984;8.548;2023-04-04T07:33:59;100845.13;;;2.75;58.06
32298;BME280;18782;48.984;8.548;2023-04-04T07:36:26;100835.38;;;2.81;57.98
32298;BME280;18782;48.984;8.548;2023-04-04T07:38:54;100839.13;;;2.86;58.22
32298;BME280;18782;48.984;8.548;2023-04-04T07:41:22;100841.13;;;2.91;56.86
32298;BME280;18782;48.984;8.548;2023-04-04T07:43:50;100838.00;;;2.95;56.90
32298;BME280;18782;48.984;8.548;2023-04-04T07:46:19;100825.41;;;2.96;57.36
32298;BME280;18782;48.984;8.548;2023-04-04T07:48:47;100833.88;;;3.08;57.58
32298;BME280;18782;48.984;8.548;2023-04-04T07:51:15;100831.84;;;3.16;57.06
32298;BME280;18782;48.984;8.548;2023-04-04T07:53:43;100836.56;;;3.23;55.58
32298;BME280;18782;48.984;8.548;2023-04-04T07:56:11;100830.13;;;3.28;56.14
32298;BME280;18782;48.984;8.548;2023-04-04T07:58:38;100839.06;;;3.35;55.97
32298;BME280;18782;48.984;8.548;2023-04-04T08:01:06;100829.91;;;3.50;54.95
32298;BME280;18782;48.984;8.548;2023-04-04T08:03:35;100831.09;;;3.55;54.41
32298;BME280;18782;48.984;8.548;2023-04-04T08:06:03;100826.91;;;3.69;59.78
32298;BME280;18782;48.984;8.548;2023-04-04T08:08:30;100829.84;;;3.75;55.83
32298;BME280;18782;48.984;8.548;2023-04-04T08:10:58;100824.97;;;3.78;55.15
32298;BME280;18782;48.984;8.548;2023-04-04T08:13:25;100822.63;;;3.95;53.83
32298;BME280;18782;48.984;8.548;2023-04-04T08:15:53;100824.19;;;4.06;53.65
32298;BME280;18782;48.984;8.548;2023-04-04T08:18:21;100819.78;;;4.16;53.35
32298;BME280;18782;48.984;8.548;2023-04-04T08:20:50;100823.91;;;4.28;51.63
32298;BME280;18782;48.984;8.548;2023-04-04T08:23:17;100824.59;;;4.25;50.97
32298;BME280;18782;48.984;8.548;2023-04-04T08:25:45;100830.78;;;4.29;50.36
32298;BME280;18782;48.984;8.548;2023-04-04T08:28:12;100817.91;;;4.27;50.65
32298;BME280;18782;48.984;8.548;2023-04-04T08:30:40;100825.19;;;4.34;49.03
32298;BME280;18782;48.984;8.548;2023-04-04T08:33:09;100822.03;;;4.38;47.59
32298;BME280;18782;48.984;8.548;2023-04-04T08:35:37;100820.88;;;4.20;45.96
32298;BME280;18782;48.984;8.548;2023-04-04T08:38:06;100824.81;;;4.28;47.13
32298;BME280;18782;48.984;8.548;2023-04-04T08:40:34;100830.09;;;4.31;48.23
32298;BME280;18782;48.984;8.548;2023-04-04T08:43:04;100826.44;;;4.41;49.47
32298;BME280;18782;48.984;8.548;2023-04-04T08:45:33;100834.09;;;4.54;48.43
32298;BME280;18782;48.984;8.548;2023-04-04T08:48:02;100838.47;;;4.70;47.51
32298;BME280;18782;48.984;8.548;2023-04-04T08:50:31;100839.81;;;4.78;47.38
32298;BME280;18782;48.984;8.548;2023-04-04T08:52:59;100824.19;;;4.87;45.37
32298;BME280;18782;48.984;8.548;2023-04-04T08:55:31;100833.53;;;4.86;46.11
32298;BME280;18782;48.984;8.548;2023-04-04T08:57:59;100828.78;;;4.92;46.46
32298;BME280;18782;48.984;8.548;2023-04-04T09:00:26;100825.25;;;4.90;46.30
32298;BME280;18782;48.984;8.548;2023-04-04T09:02:59;100826.59;;;4.98;45.31
32298;BME280;18782;48.984;8.548;2023-04-04T09:05:31;100823.91;;;5.10;46.23
32298;BME280;18782;48.984;8.548;2023-04-04T09:08:00;100828.50;;;5.16;45.89
32298;BME280;18782;48.984;8.548;2023-04-04T09:10:30;100829.84;;;5.24;46.08
32298;BME280;18782;48.984;8.548;2023-04-04T09:12:58;100829.28;;;5.43;48.14
32298;BME280;18782;48.984;8.548;2023-04-04T09:15:44;100817.31;;;5.57;45.17
32298;BME280;18782;48.984;8.548;2023-04-04T09:18:12;100824.69;;;5.52;44.99
32298;BME280;18782;48.984;8.548;2023-04-04T09:20:40;100812.38;;;5.60;44.31
32298;BME280;18782;48.984;8.548;2023-04-04T09:23:10;100821.34;;;5.83;44.69
32298;BME280;18782;48.984;8.548;2023-04-04T09:25:44;100826.84;;;6.04;45.35
32298;BME280;18782;48.984;8.548;2023-04-04T09:28:30;100806.41;;;6.04;42.72
32298;BME280;18782;48.984;8.548;2023-04-04T09:31:00;100813.81;;;5.99;44.00
32298;BME280;18782;48.984;8.548;2023-04-04T09:33:30;100803.75;;;6.17;45.88
32298;BME280;18782;48.984;8.548;2023-04-04T09:36:00;100814.81;;;6.32;43.05
32298;BME280;18782;48.984;8.548;2023-04-04T09:38:36;100810.09;;;6.09;41.10
32298;BME280;18782;48.984;8.548;2023-04-04T09:41:12;100806.38;;;6.18;42.11
32298;BME280;18782;48.984;8.548;2023-04-04T09:43:44;100804.94;;;6.38;43.87
32298;BME280;18782;48.984;8.548;2023-04-04T09:46:18;100810.00;;;6.53;42.24
32298;BME280;18782;48.984;8.548;2023-04-04T09:48:48;100800.59;;;6.68;41.48
32298;BME280;18782;48.984;8.548;2023-04-04T09:51:16;100799.63;;;6.83;41.67
32298;BME280;18782;48.984;8.548;2023-04-04T09:53:47;100799.72;;;7.00;43.30
32298;BME280;18782;48.984;8.548;2023-04-04T09:56:16;100810.91;;;7.19;41.71
32298;BME280;18782;48.984;8.548;2023-04-04T09:58:45;100805.00;;;7.03;40.41
32298;BME280;18782;48.984;8.548;2023-04-04T10:01:29;100806.97;;;7.25;43.21
32298;BME280;18782;48.984;8.548;2023-04-04T10:03:56;100808.13;;;7.82;50.92
32298;BME280;18782;48.984;8.548;2023-04-04T10:06:25;100811.97;;;7.91;44.41
32298;BME280;18782;48.984;8.548;2023-04-04T10:08:55;100809.94;;;8.01;42.41
32298;BME280;18782;48.984;8.548;2023-04-04T10:11:29;100808.75;;;8.13;42.69
32298;BME280;18782;48.984;8.548;2023-04-04T10:13:58;100804.06;;;8.22;42.41
32298;BME280;18782;48.984;8.548;2023-04-04T10:16:30;100802.16;;;8.18;40.51
32298;BME280;18782;48.984;8.548;2023-04-04T10:19:00;100804.63;;;8.34;40.87
32298;BME280;18782;48.984;8.548;2023-04-04T10:21:27;100791.75;;;8.50;40.08
32298;BME280;18782;48.984;8.548;2023-04-04T10:23:57;100810.53;;;8.49;41.78
32298;BME280;18782;48.984;8.548;2023-04-04T10:26:25;100798.94;;;8.77;39.78
32298;BME280;18782;48.984;8.548;2023-04-04T10:28:54;100806.34;;;8.88;39.63
32298;BME280;18782;48.984;8.548;2023-04-04T10:31:24;100805.84;;;8.97;40.49
32298;BME280;18782;48.984;8.548;2023-04-04T10:34:03;100802.31;;;9.34;39.40
32298;BME280;18782;48.984;8.548;2023-04-04T10:36:39;100795.97;;;9.45;36.92
32298;BME280;18782;48.984;8.548;2023-04-04T10:39:13;100801.69;;;9.39;39.47
32298;BME280;18782;48.984;8.548;2023-04-04T10:41:41;100798.34;;;9.21;38.15
32298;BME280;18782;48.984;8.548;2023-04-04T10:44:17;100793.00;;;9.36;40.10
32298;BME280;18782;48.984;8.548;2023-04-04T10:46:52;100790.84;;;9.45;36.89
32298;BME280;18782;48.984;8.548;2023-04-04T10:49:21;100789.69;;;9.59;37.07
32298;BME280;18782;48.984;8.548;2023-04-04T10:51:49;100784.31;;;9.74;37.68
32298;BME280;18782;48.984;8.548;2023-04-04T10:54:24;100782.19;;;9.64;36.86
32298;BME280;18782;48.984;8.548;2023-04-04T10:56:52;100780.47;;;9.85;38.13
32298;BME280;18782;48.984;8.548;2023-04-04T10:59:23;100791.53;;;9.83;35.88
32298;BME280;18782;48.984;8.548;2023-04-04T11:01:54;100787.94;;;10.00;36.22
32298;BME280;18782;48.984;8.548;2023-04-04T11:04:31;100784.75;;;10.06;36.15
32298;BME280;18782;48.984;8.548;2023-04-04T11:07:14;100773.94;;;10.14;36.23
32298;BME280;18782;48.984;8.548;2023-04-04T11:09:49;100776.88;;;10.44;35.76
32298;BME280;18782;48.984;8.548;2023-04-04T11:12:25;100771.88;;;10.71;35.49
32298;BME280;18782;48.984;8.548;2023-04-04T11:14:56;100774.78;;;10.58;33.77
32298;BME280;18782;48.984;8.548;2023-04-04T11:17:40;100768.13;;;10.63;35.40
32298;BME280;18782;48.984;8.548;2023-04-04T11:20:09;100760.38;;;10.86;32.95
32298;BME280;18782;48.984;8.548;2023-04-04T11:22:39;100767.81;;;10.78;32.43
32298;BME280;18782;48.984;8.548;2023-04-04T11:25:35;100766.28;;;10.83;34.15
32298;BME280;18782;48.984;8.548;2023-04-04T11:28:05;100774.28;;;11.15;36.43
32298;BME280;18782;48.984;8.548;2023-04-04T11:30:38;100780.75;;;11.28;33.29
32298;BME280;18782;48.984;8.548;2023-04-04T11:33:10;100778.38;;;11.34;32.82
32298;BME280;18782;48.984;8.548;2023-04-04T11:35:45;100780.75;;;11.79;36.52
32298;BME280;18782;48.984;8.548;2023-04-04T11:38:15;100769.44;;;12.27;34.18
32298;BME280;18782;48.984;8.548;2023-04-04T11:40:52;100767.59;;;12.23;31.86
32298;BME280;18782;48.984;8.548;2023-04-04T11:43:21;100764.59;;;12.38;31.48
32298;BME280;18782;48.984;8.548;2023-04-04T11:45:51;100766.00;;;12.57;32.51
32298;BME280;18782;48.984;8.548;2023-04-04T11:48:21;100756.22;;;12.75;31.95
32298;BME280;18782;48.984;8.548;2023-04-04T11:50:49;100761.38;;;12.75;30.75
32298;BME280;18782;48.984;8.548;2023-04-04T11:53:17;100747.19;;;12.61;33.16
32298;BME280;18782;48.984;8.548;2023-04-04T11:55:48;100759.38;;;12.95;31.64
32298;BME280;18782;48.984;8.548;2023-04-04T11:58:17;100749.03;;;12.65;33.51
32298;BME280;18782;48.984;8.548;2023-04-04T12:00:45;100749.66;;;12.87;32.35
32298;BME280;18782;48.984;8.548;2023-04-04T12:03:15;100740.50;;;13.29;29.95
32298;BME280;18782;48.984;8.548;2023-04-04T12:05:45;100744.09;;;13.36;30.81
32298;BME280;18782;48.984;8.548;2023-04-04T12:08:13;100730.66;;;13.49;30.25
32298;BME280;18782;48.984;8.548;2023-04-04T12:10:41;100738.56;;;13.55;32.10
32298;BME280;18782;48.984;8.548;2023-04-04T12:13:09;100746.06;;;13.45;30.52
32298;BME280;18782;48.984;8.548;2023-04-04T12:15:38;100727.94;;;13.43;30.00
32298;BME280;18782;48.984;8.548;2023-04-04T12:18:07;100739.19;;;13.81;31.90
32298;BME280;18782;48.984;8.548;2023-04-04T12:20:38;100733.16;;;14.19;30.40
32298;BME280;18782;48.984;8.548;2023-04-04T12:23:06;100728.97;;;14.63;28.26
32298;BME280;18782;48.984;8.548;2023-04-04T12:25:36;100735.59;;;14.93;29.23
32298;BME280;18782;48.984;8.548;2023-04-04T12:28:25;100727.59;;;14.82;28.87
32298;BME280;18782;48.984;8.548;2023-04-04T12:30:54;100739.59;;;15.22;28.81
32298;BME280;18782;48.984;8.548;2023-04-04T12:33:22;100734.31;;;15.63;28.46
32298;BME280;18782;48.984;8.548;2023-04-04T12:35:51;100744.50;;;16.07;28.26
32298;BME280;18782;48.984;8.548;2023-04-04T12:38:20;100744.31;;;15.95;26.72
32298;BME280;18782;48.984;8.548;2023-04-04T12:40:50;100740.59;;;16.36;27.57
32298;BME280;18782;48.984;8.548;2023-04-04T12:43:18;100734.81;;;16.59;26.41
32298;BME280;18782;48.984;8.548;2023-04-04T12:45:48;100728.09;;;16.73;26.11
32298;BME280;18782;48.984;8.548;2023-04-04T12:48:16;100718.00;;;17.01;25.47
32298;BME280;18782;48.984;8.548;2023-04-04T12:50:53;100710.59;;;16.63;26.43
32298;BME280;18782;48.984;8.548;2023-04-04T12:53:22;100697.34;;;17.14;26.60
32298;BME280;18782;48.984;8.548;2023-04-04T12:55:54;100708.00;;;17.43;25.87
32298;BME280;18782;48.984;8.548;2023-04-04T12:58:23;100710.03;;;17.78;25.13
32298;BME280;18782;48.984;8.548;2023-04-04T13:00:53;100712.81;;;18.04;24.02
32298;BME280;18782;48.984;8.548;2023-04-04T13:03:22;100710.47;;;18.55;23.82
32298;BME280;18782;48.984;8.548;2023-04-04T13:05:52;100707.91;;;18.65;23.85
32298;BME280;18782;48.984;8.548;2023-04-04T13:08:20;100700.13;;;18.73;23.43
32298;BME280;18782;48.984;8.548;2023-04-04T13:11:01;100694.53;;;17.93;22.16
32298;BME280;18782;48.984;8.548;2023-04-04T13:13:32;100694.09;;;18.89;23.17